Time;durP1;ratioP1;P1;durP2;ratioP2;P2;SDS_P1;SDS_P2;PMS_P1;PMS_P2;Temp;Humidity;BMP_temperature;BMP_pressure;BME280_temperature;BME280_humidity;BME280_pressure;Samples;Min_cycle;Max_cycle;Signal;HPM_P1;HPM_P2
2022/05/16 00:02:10;;;;;;;4.43;3.28;;;;;;;;;;4418096;32;20149;-68
2022/05/16 00:04:38;;;;;;;4.00;2.90;;;;;;;;;;4418127;32;20077;-69
2022/05/16 00:07:05;;;;;;;3.60;2.65;;;;;;;;;;4405415;32;20073;-67
2022/05/16 00:09:32;;;;;;;3.08;2.55;;;;;;;;;;4405030;32;20100;-69
2022/05/16 00:11:58;;;;;;;3.60;2.42;;;;;;;;;;4417756;32;20141;-69
2022/05/16 00:14:25;;;;;;;3.10;2.40;;;;;;;;;;4405267;32;20595;-69
2022/05/16 00:16:52;;;;;;;4.22;2.40;;;;;;;;;;4417787;32;20141;-67
2022/05/16 00:19:18;;;;;;;4.07;2.70;;;;;;;;;;4417636;32;20455;-69
2022/05/16 00:21:45;;;;;;;3.58;2.35;;;;;;;;;;4417749;32;20137;-68
2022/05/16 00:24:12;;;;;;;3.53;2.58;;;;;;;;;;4417564;32;20082;-68
2022/05/16 00:26:39;;;;;;;5.65;2.40;;;;;;;;;;4404824;32;20069;-68
2022/05/16 00:29:06;;;;;;;2.72;2.03;;;;;;;;;;4405246;32;20093;-68
2022/05/16 00:31:33;;;;;;;3.37;2.47;;;;;;;;;;4417245;32;20541;-69
2022/05/16 00:33:59;;;;;;;3.80;2.47;;;;;;;;;;4419030;32;20080;-69
2022/05/16 00:36:26;;;;;;;5.53;2.78;;;;;;;;;;4418129;32;20094;-67
2022/05/16 00:38:56;;;;;;;4.15;2.60;;;;;;;;;;4405429;32;20074;-67
2022/05/16 00:44:03;;;;;;;7.97;3.70;;;;;;;;;;3857281;37;20062;-68
2022/05/16 00:46:31;;;;;;;8.27;3.75;;;;;;;;;;4420613;32;20062;-68
2022/05/16 00:48:59;;;;;;;7.87;3.37;;;;;;;;;;4392973;32;20089;-68
2022/05/16 00:51:34;;;;;;;5.32;3.35;;;;;;;;;;4418540;32;20096;-69
2022/05/16 00:54:21;;;;;;;6.32;2.65;;;;;;;;;;4418269;32;20530;-67
2022/05/16 00:56:50;;;;;;;5.65;3.10;;;;;;;;;;4419217;32;20072;-68
2022/05/16 00:59:18;;;;;;;6.55;3.40;;;;;;;;;;4405721;32;20089;-68
2022/05/16 01:07:31;;;;;;;13.98;6.22;;;;;;;;;;4385349;32;20116;-67
2022/05/16 01:09:58;;;;;;;14.73;6.25;;;;;;;;;;4417988;32;20242;-68
2022/05/16 01:12:31;;;;;;;11.12;4.60;;;;;;;;;;4418060;32;20100;-67
2022/05/16 01:14:58;;;;;;;9.00;3.72;;;;;;;;;;4418054;32;20137;-68
2022/05/16 01:17:25;;;;;;;5.07;2.80;;;;;;;;;;4405174;32;20084;-68
2022/05/16 01:19:52;;;;;;;4.95;2.92;;;;;;;;;;4405279;32;20092;-69
2022/05/16 01:22:44;;;;;;;5.32;2.65;;;;;;;;;;4405085;32;20536;-69
2022/05/16 01:25:18;;;;;;;2.83;2.40;;;;;;;;;;4419138;32;20168;-69
2022/05/16 01:28:01;;;;;;;3.40;2.30;;;;;;;;;;4418985;32;20504;-69
2022/05/16 01:30:32;;;;;;;3.65;2.65;;;;;;;;;;4392370;32;20507;-68
2022/05/16 01:32:59;;;;;;;3.50;2.50;;;;;;;;;;4405914;32;20160;-67
2022/05/16 01:35:28;;;;;;;5.80;2.75;;;;;;;;;;4405312;32;20079;-68
2022/05/16 01:40:41;;;;;;;3.37;2.50;;;;;;;;;;4418234;32;20085;-69
2022/05/16 01:43:07;;;;;;;3.00;2.30;;;;;;;;;;4404491;32;20073;-69
2022/05/16 01:45:35;;;;;;;4.85;2.70;;;;;;;;;;4418129;32;20160;-68
2022/05/16 01:48:01;;;;;;;4.32;2.65;;;;;;;;;;4417356;32;20100;-69
2022/05/16 01:50:28;;;;;;;4.78;2.85;;;;;;;;;;4404935;32;20164;-68
2022/05/16 01:52:55;;;;;;;3.37;2.62;;;;;;;;;;4405104;32;20061;-69
2022/05/16 01:55:22;;;;;;;4.53;2.53;;;;;;;;;;4408781;32;20085;-68
2022/05/16 01:57:49;;;;;;;2.58;2.08;;;;;;;;;;4409023;32;20513;-69
2022/05/16 02:00:17;;;;;;;3.70;2.53;;;;;;;;;;4408753;32;20080;-69
2022/05/16 02:02:44;;;;;;;3.97;2.70;;;;;;;;;;4394627;32;20530;-68
2022/05/16 02:05:17;;;;;;;4.03;2.80;;;;;;;;;;4394428;32;20594;-68
2022/05/16 02:07:45;;;;;;;4.22;2.70;;;;;;;;;;4395035;32;20161;-69
2022/05/16 02:10:15;;;;;;;3.20;2.62;;;;;;;;;;4407716;32;20085;-67
2022/05/16 02:12:42;;;;;;;3.95;2.70;;;;;;;;;;4407434;32;20172;-68
2022/05/16 02:15:11;;;;;;;2.92;2.58;;;;;;;;;;4407510;32;20455;-67
2022/05/16 02:17:37;;;;;;;4.12;2.72;;;;;;;;;;4407155;32;20077;-68
2022/05/16 02:20:05;;;;;;;3.83;2.60;;;;;;;;;;4408654;32;20156;-68
2022/05/16 02:25:18;;;;;;;3.70;2.47;;;;;;;;;;4396336;32;20542;-67
2022/05/16 02:27:46;;;;;;;3.45;2.62;;;;;;;;;;4406794;32;20110;-68
2022/05/16 02:30:13;;;;;;;4.93;2.65;;;;;;;;;;4408143;32;20097;-67
2022/05/16 02:32:40;;;;;;;3.53;2.50;;;;;;;;;;4407687;32;20099;-69
2022/05/16 02:35:07;;;;;;;4.28;2.60;;;;;;;;;;4408244;32;20503;-68
2022/05/16 02:37:34;;;;;;;3.62;2.65;;;;;;;;;;4408435;32;20240;-68
2022/05/16 02:40:00;;;;;;;3.25;2.50;;;;;;;;;;4394125;32;20226;-68
2022/05/16 02:42:27;;;;;;;3.10;2.67;;;;;;;;;;4406446;32;20089;-69
2022/05/16 02:44:54;;;;;;;4.68;2.60;;;;;;;;;;4406380;32;20093;-68
2022/05/16 02:47:23;;;;;;;4.03;2.58;;;;;;;;;;4406994;32;20062;-68
2022/05/16 02:49:50;;;;;;;3.75;3.00;;;;;;;;;;4407031;32;20104;-69
2022/05/16 02:52:16;;;;;;;4.45;2.62;;;;;;;;;;4407110;32;20097;-69
2022/05/16 02:54:43;;;;;;;3.90;2.70;;;;;;;;;;4407720;32;20099;-69
2022/05/16 02:57:10;;;;;;;3.12;2.50;;;;;;;;;;4407876;32;20497;-69
2022/05/16 02:59:37;;;;;;;4.22;2.75;;;;;;;;;;4406551;32;20089;-69
2022/05/16 03:02:07;;;;;;;4.60;2.62;;;;;;;;;;4406919;32;20080;-68
2022/05/16 03:07:06;;;;;;;3.63;2.70;;;;;;;;;;3857445;37;20583;-68
2022/05/16 03:09:33;;;;;;;4.18;2.40;;;;;;;;;;4418353;32;20175;-67
2022/05/16 03:12:01;;;;;;;3.35;2.72;;;;;;;;;;4406251;32;20099;-67
2022/05/16 03:14:28;;;;;;;3.85;2.83;;;;;;;;;;4418865;32;20154;-69
2022/05/16 03:16:54;;;;;;;4.28;2.75;;;;;;;;;;4407131;32;20509;-69
2022/05/16 03:19:21;;;;;;;3.55;2.50;;;;;;;;;;4420299;32;20173;-68
2022/05/16 03:21:48;;;;;;;4.15;2.70;;;;;;;;;;4405643;32;20077;-69
2022/05/16 03:24:15;;;;;;;3.55;2.30;;;;;;;;;;4418128;32;20077;-68
2022/05/16 03:26:42;;;;;;;3.40;2.40;;;;;;;;;;4402903;32;20081;-68
2022/05/16 03:29:13;;;;;;;4.85;2.35;;;;;;;;;;4404713;32;20081;-68
2022/05/16 03:31:40;;;;;;;3.67;2.45;;;;;;;;;;4403518;32;20515;-69
2022/05/16 03:34:09;;;;;;;4.80;2.35;;;;;;;;;;4402892;32;20089;-68
2022/05/16 03:36:36;;;;;;;3.72;2.60;;;;;;;;;;4403430;32;20073;-67
2022/05/16 03:41:47;;;;;;;3.53;2.22;;;;;;;;;;4405153;32;20081;-66
2022/05/16 03:44:14;;;;;;;2.78;2.17;;;;;;;;;;4390176;32;20518;-69
2022/05/16 03:46:41;;;;;;;6.47;2.55;;;;;;;;;;4402465;32;20074;-69
2022/05/16 03:49:09;;;;;;;3.12;2.28;;;;;;;;;;4404330;32;20154;-67
2022/05/16 03:51:37;;;;;;;4.62;2.10;;;;;;;;;;4390310;32;20174;-66
2022/05/16 03:54:04;;;;;;;3.92;2.50;;;;;;;;;;4402639;32;20100;-66
2022/05/16 03:56:31;;;;;;;3.80;2.05;;;;;;;;;;4402749;32;20089;-67
2022/05/16 03:58:59;;;;;;;3.25;1.90;;;;;;;;;;4389786;32;20508;-68
2022/05/16 04:01:27;;;;;;;6.43;2.12;;;;;;;;;;4402333;32;20076;-69
2022/05/16 04:03:55;;;;;;;4.10;1.95;;;;;;;;;;4402419;32;20189;-67
2022/05/16 04:06:22;;;;;;;3.53;2.40;;;;;;;;;;4402320;32;20102;-68
2022/05/16 04:08:49;;;;;;;3.22;2.00;;;;;;;;;;4402674;32;20081;-67
2022/05/16 04:11:16;;;;;;;3.97;1.98;;;;;;;;;;4402575;32;20086;-66
2022/05/16 04:13:44;;;;;;;4.47;2.12;;;;;;;;;;4402077;32;20082;-68
2022/05/16 04:16:10;;;;;;;2.97;2.50;;;;;;;;;;4402089;32;20160;-67
2022/05/16 04:18:37;;;;;;;3.58;2.35;;;;;;;;;;4392938;32;20504;-70
2022/05/16 04:21:04;;;;;;;3.75;1.92;;;;;;;;;;4391716;32;20584;-69
2022/05/16 04:23:31;;;;;;;3.03;2.00;;;;;;;;;;4391637;32;20159;-69
2022/05/16 04:25:58;;;;;;;3.17;2.28;;;;;;;;;;4391954;32;20145;-68
2022/05/16 04:28:25;;;;;;;4.00;2.12;;;;;;;;;;4391654;32;20488;-71
2022/05/16 04:30:51;;;;;;;2.42;2.20;;;;;;;;;;4379372;32;20535;-68
2022/05/16 04:33:19;;;;;;;2.47;1.83;;;;;;;;;;4392251;32;20073;-70
2022/05/16 04:35:46;;;;;;;4.50;2.22;;;;;;;;;;4391922;32;20069;-71
2022/05/16 04:38:13;;;;;;;4.05;2.28;;;;;;;;;;4379890;32;20085;-72
2022/05/16 04:42:40;;;;;;;3.00;2.47;;;;;;;;;;4391677;32;20084;-70
2022/05/16 04:43:26;;;;;;;3.30;2.60;;;;;;;;;;4391890;32;20078;-67
2022/05/16 04:45:53;;;;;;;4.57;2.53;;;;;;;;;;4391513;32;20136;-70
2022/05/16 04:48:19;;;;;;;3.75;2.50;;;;;;;;;;4391628;32;20100;-69
2022/05/16 04:50:46;;;;;;;2.12;1.92;;;;;;;;;;4391891;32;20141;-71
2022/05/16 04:53:13;;;;;;;5.85;2.67;;;;;;;;;;4378785;32;20081;-70
2022/05/16 04:55:40;;;;;;;4.97;2.65;;;;;;;;;;4378872;32;20539;-71
2022/05/16 04:58:06;;;;;;;5.50;2.75;;;;;;;;;;4391206;32;20103;-75
2022/05/16 05:00:33;;;;;;;4.12;2.33;;;;;;;;;;4391442;32;20240;-77
2022/05/16 05:03:00;;;;;;;3.85;2.75;;;;;;;;;;4393070;32;20158;-75
2022/05/16 05:05:26;;;;;;;4.43;3.08;;;;;;;;;;4390985;32;20520;-77
2022/05/16 05:07:53;;;;;;;5.60;2.80;;;;;;;;;;4366329;32;20170;-77
2022/05/16 05:16:01;;;;;;;4.10;2.65;;;;;;;;;;4392640;32;20505;-75
2022/05/16 05:18:28;;;;;;;7.70;3.10;;;;;;;;;;4378903;32;20145;-75
2022/05/16 05:20:55;;;;;;;3.80;2.40;;;;;;;;;;4392588;32;20073;-76
2022/05/16 05:23:22;;;;;;;6.10;2.80;;;;;;;;;;4390864;32;20173;-75
2022/05/16 05:25:48;;;;;;;4.00;2.50;;;;;;;;;;4392580;32;20546;-75
2022/05/16 05:28:15;;;;;;;3.42;2.62;;;;;;;;;;4390361;32;20109;-75
2022/05/16 05:30:42;;;;;;;2.95;2.30;;;;;;;;;;4395530;32;20085;-76
2022/05/16 05:33:08;;;;;;;4.57;2.45;;;;;;;;;;4395264;32;20590;-76
2022/05/16 05:35:35;;;;;;;2.65;2.22;;;;;;;;;;4380791;32;20185;-75
2022/05/16 05:38:01;;;;;;;3.12;2.40;;;;;;;;;;4378448;32;20097;-73
2022/05/16 05:40:28;;;;;;;3.50;2.33;;;;;;;;;;4378592;32;20162;-72
2022/05/16 05:42:55;;;;;;;3.78;3.00;;;;;;;;;;4378440;32;20081;-73
2022/05/16 05:45:21;;;;;;;5.15;2.58;;;;;;;;;;4390724;32;20065;-73
2022/05/16 05:47:48;;;;;;;4.03;2.50;;;;;;;;;;4378837;32;20554;-74
2022/05/16 05:50:15;;;;;;;4.10;2.15;;;;;;;;;;4390377;32;20138;-72
2022/05/16 05:52:42;;;;;;;2.78;2.30;;;;;;;;;;4390577;32;20087;-73
2022/05/16 05:55:08;;;;;;;4.50;2.17;;;;;;;;;;4390771;32;20084;-73
2022/05/16 05:57:35;;;;;;;3.55;2.45;;;;;;;;;;4390650;32;20101;-73
2022/05/16 06:00:05;;;;;;;4.65;2.33;;;;;;;;;;4391096;32;20493;-73
2022/05/16 06:02:32;;;;;;;5.90;2.35;;;;;;;;;;4377966;32;20076;-74
2022/05/16 06:04:59;;;;;;;4.65;2.12;;;;;;;;;;4391855;32;20069;-74
2022/05/16 06:07:25;;;;;;;5.40;2.30;;;;;;;;;;4390665;32;20255;-73
2022/05/16 06:09:52;;;;;;;3.67;2.10;;;;;;;;;;4391867;32;20157;-74
2022/05/16 06:12:18;;;;;;;3.45;2.22;;;;;;;;;;4377734;32;20100;-73
2022/05/16 06:14:45;;;;;;;3.25;2.22;;;;;;;;;;4390293;32;20105;-73
2022/05/16 06:17:12;;;;;;;4.53;2.40;;;;;;;;;;4390351;32;20084;-74
2022/05/16 06:19:39;;;;;;;3.55;2.10;;;;;;;;;;4390521;32;20139;-73
2022/05/16 06:22:06;;;;;;;5.53;2.17;;;;;;;;;;4377510;32;20077;-73
2022/05/16 06:27:18;;;;;;;3.53;1.92;;;;;;;;;;4391436;32;20272;-73
2022/05/16 06:29:45;;;;;;;5.10;2.17;;;;;;;;;;4390160;32;20073;-73
2022/05/16 06:32:12;;;;;;;5.45;2.10;;;;;;;;;;4391545;32;20150;-73
2022/05/16 06:34:39;;;;;;;2.70;2.05;;;;;;;;;;4390088;32;20542;-73
2022/05/16 06:37:06;;;;;;;3.72;2.20;;;;;;;;;;4378242;32;20085;-73
2022/05/16 06:39:32;;;;;;;4.12;2.30;;;;;;;;;;4391225;32;20157;-73
2022/05/16 06:41:59;;;;;;;3.03;1.60;;;;;;;;;;4391331;32;20512;-73
2022/05/16 06:44:28;;;;;;;4.78;1.73;;;;;;;;;;4391010;32;20074;-72
2022/05/16 06:46:55;;;;;;;5.15;1.75;;;;;;;;;;4389987;32;20188;-73
2022/05/16 06:49:22;;;;;;;3.97;2.10;;;;;;;;;;4392069;32;20078;-73
2022/05/16 06:51:49;;;;;;;2.45;1.90;;;;;;;;;;4390041;32;20081;-73
2022/05/16 06:54:15;;;;;;;3.25;1.85;;;;;;;;;;4390040;32;20171;-72
2022/05/16 06:56:42;;;;;;;4.15;2.05;;;;;;;;;;4391229;32;20077;-73
2022/05/16 06:59:09;;;;;;;2.92;2.10;;;;;;;;;;4377267;32;20073;-73
2022/05/16 07:01:36;;;;;;;5.03;1.90;;;;;;;;;;4391382;32;20078;-73
2022/05/16 07:04:04;;;;;;;2.55;2.00;;;;;;;;;;4389692;32;20145;-73
2022/05/16 07:06:34;;;;;;;1.90;1.70;;;;;;;;;;4364667;32;20092;-72
2022/05/16 07:09:01;;;;;;;2.65;1.98;;;;;;;;;;4377106;32;20082;-73
2022/05/16 07:11:29;;;;;;;3.55;1.73;;;;;;;;;;4390462;32;20093;-74
2022/05/16 07:13:55;;;;;;;2.12;1.52;;;;;;;;;;4391296;32;20508;-71
2022/05/16 07:16:22;;;;;;;2.87;2.20;;;;;;;;;;4364903;32;20550;-72
2022/05/16 07:18:49;;;;;;;3.90;1.95;;;;;;;;;;4389723;32;20540;-73
2022/05/16 07:21:16;;;;;;;3.15;2.00;;;;;;;;;;4377368;32;20513;-72
2022/05/16 07:23:42;;;;;;;2.10;1.60;;;;;;;;;;4391055;32;20073;-73
2022/05/16 07:28:54;;;;;;;3.45;2.08;;;;;;;;;;4391400;32;20156;-72
2022/05/16 07:32:01;;;;;;;2.03;1.70;;;;;;;;;;3857504;37;20481;-74
2022/05/16 07:34:28;;;;;;;2.62;1.92;;;;;;;;;;4418598;32;20083;-73
2022/05/16 07:36:55;;;;;;;3.75;1.80;;;;;;;;;;4418945;32;20145;-72
2022/05/16 07:39:21;;;;;;;2.35;1.80;;;;;;;;;;4418288;32;20169;-73
2022/05/16 07:41:52;;;;;;;2.83;1.80;;;;;;;;;;4418393;32;20602;-73
2022/05/16 07:44:19;;;;;;;7.12;1.67;;;;;;;;;;4406181;32;20104;-73
2022/05/16 07:46:45;;;;;;;2.83;1.87;;;;;;;;;;4421490;32;20088;-74
2022/05/16 07:49:13;;;;;;;1.92;1.50;;;;;;;;;;4418997;32;20096;-73
2022/05/16 07:51:40;;;;;;;2.12;1.70;;;;;;;;;;4418141;32;20137;-73
2022/05/16 07:54:08;;;;;;;1.67;1.45;;;;;;;;;;4405769;32;20083;-73
2022/05/16 07:56:35;;;;;;;1.67;1.55;;;;;;;;;;4405541;32;20091;-74
2022/05/16 07:59:02;;;;;;;1.85;1.45;;;;;;;;;;4419205;32;20527;-74
2022/05/16 08:01:29;;;;;;;4.00;1.52;;;;;;;;;;4418389;32;20100;-73
2022/05/16 08:03:56;;;;;;;2.30;1.55;;;;;;;;;;4405436;32;20173;-72
2022/05/16 08:06:27;;;;;;;2.85;1.40;;;;;;;;;;4405793;32;20089;-73
2022/05/16 08:11:40;;;;;;;2.05;1.52;;;;;;;;;;4418908;32;20078;-72
2022/05/16 08:14:06;;;;;;;2.17;1.17;;;;;;;;;;4405487;32;20093;-73
2022/05/16 08:16:33;;;;;;;1.95;1.40;;;;;;;;;;4417583;32;20080;-73
2022/05/16 08:19:00;;;;;;;2.55;1.25;;;;;;;;;;4405156;32;20083;-73
2022/05/16 08:21:27;;;;;;;5.68;1.65;;;;;;;;;;4404775;32;20096;-73
2022/05/16 08:23:53;;;;;;;3.35;1.83;;;;;;;;;;4419193;32;20072;-72
2022/05/16 08:26:20;;;;;;;3.60;1.92;;;;;;;;;;4418876;32;20156;-73
2022/05/16 08:28:47;;;;;;;4.00;2.28;;;;;;;;;;4418614;32;20081;-73
2022/05/16 08:31:14;;;;;;;3.17;2.33;;;;;;;;;;4416931;32;20077;-73
2022/05/16 08:33:41;;;;;;;5.18;2.70;;;;;;;;;;4417048;32;20532;-73
2022/05/16 08:41:55;;;;;;;5.70;2.50;;;;;;;;;;4414784;32;20097;-73
2022/05/16 08:44:23;;;;;;;10.75;2.70;;;;;;;;;;4407150;32;20077;-73
2022/05/16 08:47:09;;;;;;;7.00;2.30;;;;;;;;;;4408827;32;20076;-74
2022/05/16 08:49:39;;;;;;;4.32;1.58;;;;;;;;;;4408603;32;20144;-73
2022/05/16 08:52:23;;;;;;;1.87;1.55;;;;;;;;;;4407127;32;20165;-73
2022/05/16 08:55:13;;;;;;;4.53;1.80;;;;;;;;;;4406693;32;20173;-73
2022/05/16 08:57:43;;;;;;;2.08;1.70;;;;;;;;;;4406714;32;20058;-73
2022/05/16 09:00:49;;;;;;;3.00;1.70;;;;;;;;;;4407757;32;20080;-74
2022/05/16 09:03:43;;;;;;;4.25;1.75;;;;;;;;;;4394545;32;20463;-74
2022/05/16 09:06:16;;;;;;;1.80;1.40;;;;;;;;;;4386864;32;20073;-74
2022/05/16 09:08:49;;;;;;;6.00;1.70;;;;;;;;;;4382312;32;20097;-73
2022/05/16 09:11:22;;;;;;;1.52;1.35;;;;;;;;;;4406787;32;20078;-73
2022/05/16 09:13:58;;;;;;;2.22;1.20;;;;;;;;;;4408300;32;20150;-72
2022/05/16 09:16:52;;;;;;;2.62;1.65;;;;;;;;;;4407241;32;20165;-72
2022/05/16 09:19:27;;;;;;;3.25;1.40;;;;;;;;;;4406931;32;20506;-73
2022/05/16 09:22:08;;;;;;;1.42;1.25;;;;;;;;;;4407069;32;20092;-73
2022/05/16 09:24:45;;;;;;;2.55;1.37;;;;;;;;;;4393933;32;20071;-73
2022/05/16 09:30:19;;;;;;;1.98;1.50;;;;;;;;;;4395752;32;20498;-72
2022/05/16 09:32:50;;;;;;;3.03;1.20;;;;;;;;;;4394021;32;20515;-73
2022/05/16 09:35:39;;;;;;;2.47;1.30;;;;;;;;;;4394442;32;20068;-73
2022/05/16 09:38:06;;;;;;;2.10;1.50;;;;;;;;;;4394043;32;20158;-74
2022/05/16 09:40:38;;;;;;;2.12;1.20;;;;;;;;;;4381368;32;20512;-73
2022/05/16 09:43:15;;;;;;;2.55;1.85;;;;;;;;;;4406000;32;20097;-74
2022/05/16 09:45:45;;;;;;;2.10;1.25;;;;;;;;;;4406283;32;20133;-73
2022/05/16 09:48:17;;;;;;;3.08;1.27;;;;;;;;;;4394014;32;20077;-73
2022/05/16 09:51:00;;;;;;;1.48;1.37;;;;;;;;;;4406321;32;20108;-74
2022/05/16 09:53:54;;;;;;;1.48;1.25;;;;;;;;;;4393144;32;20081;-73
2022/05/16 09:56:26;;;;;;;2.25;1.42;;;;;;;;;;4404193;32;20451;-73
2022/05/16 09:58:56;;;;;;;1.92;1.30;;;;;;;;;;4381106;32;20145;-72
2022/05/16 10:01:38;;;;;;;1.55;1.20;;;;;;;;;;4409446;32;20533;-72
2022/05/16 10:04:12;;;;;;;1.73;1.50;;;;;;;;;;4397557;32;20082;-73
2022/05/16 10:06:43;;;;;;;1.90;0.90;;;;;;;;;;4393735;32;20080;-73
2022/05/16 10:09:15;;;;;;;2.08;1.30;;;;;;;;;;4393551;32;20077;-73
2022/05/16 10:11:52;;;;;;;2.22;1.15;;;;;;;;;;4407492;32;20118;-74
2022/05/16 10:14:18;;;;;;;1.73;1.05;;;;;;;;;;4393377;32;20065;-75
2022/05/16 10:16:49;;;;;;;1.20;1.10;;;;;;;;;;4405750;32;20078;-74
2022/05/16 10:19:22;;;;;;;1.73;1.10;;;;;;;;;;4405753;32;20077;-73
2022/05/16 10:22:01;;;;;;;1.33;1.10;;;;;;;;;;4380524;32;20569;-74
2022/05/16 10:24:38;;;;;;;2.45;1.20;;;;;;;;;;4405778;32;20073;-74
2022/05/16 10:27:08;;;;;;;1.90;1.00;;;;;;;;;;4405961;32;20074;-73
2022/05/16 10:29:40;;;;;;;2.65;1.00;;;;;;;;;;4392800;32;20103;-73
2022/05/16 10:35:10;;;;;;;0.98;0.70;;;;;;;;;;4395134;32;20077;-74
2022/05/16 10:37:41;;;;;;;2.78;1.00;;;;;;;;;;4392869;32;20152;-73
2022/05/16 10:40:12;;;;;;;1.85;1.20;;;;;;;;;;4405643;32;20112;-73
2022/05/16 10:43:04;;;;;;;1.17;0.85;;;;;;;;;;4406414;32;20092;-74
2022/05/16 10:45:32;;;;;;;1.25;1.10;;;;;;;;;;4409084;32;20073;-74
2022/05/16 10:48:18;;;;;;;3.60;1.52;;;;;;;;;;4393112;32;20076;-73
2022/05/16 10:50:53;;;;;;;4.00;1.48;;;;;;;;;;4393203;32;20073;-74
2022/05/16 10:53:45;;;;;;;3.50;1.40;;;;;;;;;;4393346;32;20087;-73
2022/05/16 10:56:38;;;;;;;2.40;1.05;;;;;;;;;;4406941;32;20070;-74
2022/05/16 10:59:43;;;;;;;2.62;1.40;;;;;;;;;;4392953;32;20062;-74
2022/05/16 11:02:30;;;;;;;2.42;1.08;;;;;;;;;;4402122;32;20089;-73
2022/05/16 11:05:25;;;;;;;2.53;1.65;;;;;;;;;;4404938;32;20112;-73
2022/05/16 11:08:11;;;;;;;2.90;1.30;;;;;;;;;;4405230;32;20085;-74
2022/05/16 11:10:55;;;;;;;1.55;1.23;;;;;;;;;;4406778;32;20081;-72
2022/05/16 11:13:45;;;;;;;2.42;1.45;;;;;;;;;;4406960;32;20591;-73
2022/05/16 11:16:18;;;;;;;1.65;1.02;;;;;;;;;;4405003;32;20154;-73
2022/05/16 11:18:58;;;;;;;3.17;1.55;;;;;;;;;;4404950;32;20081;-73
2022/05/16 11:21:41;;;;;;;2.37;1.60;;;;;;;;;;4405527;32;20089;-72
2022/05/16 11:24:26;;;;;;;3.67;1.40;;;;;;;;;;4405167;32;20073;-74
2022/05/16 11:27:21;;;;;;;2.90;1.48;;;;;;;;;;4393334;32;20093;-73
2022/05/16 11:29:58;;;;;;;2.47;1.48;;;;;;;;;;4404400;32;20472;-72
2022/05/16 11:32:53;;;;;;;2.35;1.25;;;;;;;;;;4404923;32;20093;-73
2022/05/16 11:35:46;;;;;;;2.85;1.60;;;;;;;;;;4392303;32;20073;-73
2022/05/16 11:38:35;;;;;;;2.55;1.70;;;;;;;;;;4403207;32;20084;-73
2022/05/16 11:41:23;;;;;;;1.87;1.27;;;;;;;;;;4405184;32;20081;-74
2022/05/16 11:43:54;;;;;;;2.53;1.73;;;;;;;;;;4404646;32;20093;-73
2022/05/16 11:46:39;;;;;;;2.40;1.80;;;;;;;;;;4391933;32;20144;-74
2022/05/16 11:49:19;;;;;;;4.85;1.67;;;;;;;;;;4406094;32;20515;-74
2022/05/16 11:52:14;;;;;;;2.08;1.42;;;;;;;;;;4406682;32;20089;-74
2022/05/16 11:54:58;;;;;;;4.28;1.50;;;;;;;;;;4406324;32;20484;-73
2022/05/16 12:03:16;;;;;;;1.42;1.00;;;;;;;;;;4392733;32;20076;-73
2022/05/16 12:05:49;;;;;;;2.12;1.40;;;;;;;;;;4404835;32;20076;-73
2022/05/16 12:08:40;;;;;;;2.10;1.62;;;;;;;;;;4379827;32;20081;-73
2022/05/16 12:11:06;;;;;;;2.15;1.20;;;;;;;;;;4405680;32;20528;-72
2022/05/16 12:13:39;;;;;;;1.58;1.35;;;;;;;;;;4404805;32;20154;-71
2022/05/16 12:16:15;;;;;;;2.80;1.40;;;;;;;;;;4395424;32;20169;-72
2022/05/16 12:18:48;;;;;;;1.50;1.25;;;;;;;;;;4410859;32;20425;-72
2022/05/16 12:21:35;;;;;;;1.80;1.08;;;;;;;;;;4395072;32;20168;-68
2022/05/16 12:24:05;;;;;;;1.42;1.15;;;;;;;;;;4407811;32;20066;-69
2022/05/16 12:27:06;;;;;;;1.17;1.00;;;;;;;;;;4395134;32;20069;-71
2022/05/16 12:29:49;;;;;;;1.40;1.15;;;;;;;;;;4394648;32;20074;-71
2022/05/16 12:32:31;;;;;;;3.97;1.45;;;;;;;;;;4395194;32;20085;-74
2022/05/16 12:35:09;;;;;;;2.20;1.20;;;;;;;;;;4409222;32;20065;-73
2022/05/16 12:37:37;;;;;;;3.17;1.30;;;;;;;;;;4407261;32;20101;-73
2022/05/16 12:40:10;;;;;;;2.00;1.20;;;;;;;;;;4407895;32;20081;-75
2022/05/16 12:43:17;;;;;;;1.52;1.12;;;;;;;;;;4408281;32;20079;-73
2022/05/16 12:46:09;;;;;;;2.00;1.20;;;;;;;;;;4370360;32;20618;-71
2022/05/16 12:49:00;;;;;;;2.10;1.12;;;;;;;;;;4406903;32;20071;-72
2022/05/16 12:51:59;;;;;;;1.37;1.08;;;;;;;;;;4394511;32;20085;-71
2022/05/16 12:54:46;;;;;;;1.55;0.80;;;;;;;;;;4394775;32;20070;-71
2022/05/16 12:57:23;;;;;;;1.35;1.12;;;;;;;;;;4407330;32;20106;-70
2022/05/16 12:59:55;;;;;;;2.12;1.02;;;;;;;;;;4408747;32;20157;-73
2022/05/16 13:02:44;;;;;;;1.30;0.93;;;;;;;;;;4394632;32;20153;-73
2022/05/16 13:05:16;;;;;;;2.20;1.30;;;;;;;;;;4394335;32;20529;-72
2022/05/16 13:07:57;;;;;;;1.42;0.80;;;;;;;;;;4408571;32;20081;-72
2022/05/16 13:10:52;;;;;;;1.73;1.15;;;;;;;;;;4406643;32;20072;-71
2022/05/16 13:13:24;;;;;;;2.22;0.90;;;;;;;;;;4394481;32;20081;-71
2022/05/16 13:15:57;;;;;;;3.10;1.00;;;;;;;;;;4394417;32;20074;-71
2022/05/16 13:18:27;;;;;;;2.37;1.05;;;;;;;;;;4382282;32;20081;-71
2022/05/16 13:20:56;;;;;;;2.05;1.20;;;;;;;;;;4406846;32;20074;-72
2022/05/16 13:23:23;;;;;;;1.48;0.85;;;;;;;;;;4406453;32;20089;-71
2022/05/16 13:31:34;;;;;;;3.37;1.15;;;;;;;;;;4407455;32;20081;-72
2022/05/16 13:34:05;;;;;;;3.30;1.30;;;;;;;;;;4406566;32;20084;-73
2022/05/16 13:36:32;;;;;;;3.17;1.33;;;;;;;;;;4406382;32;20072;-74
2022/05/16 13:39:11;;;;;;;4.65;1.70;;;;;;;;;;4406866;32;20508;-71
2022/05/16 13:41:39;;;;;;;5.03;1.20;;;;;;;;;;4394225;32;20451;-71
2022/05/16 13:44:11;;;;;;;8.07;1.30;;;;;;;;;;4406832;32;20081;-71
2022/05/16 13:46:37;;;;;;;1.92;1.27;;;;;;;;;;4408198;32;20153;-72
2022/05/16 13:49:11;;;;;;;2.37;1.33;;;;;;;;;;4393925;32;20173;-77
2022/05/16 13:51:49;;;;;;;2.85;1.10;;;;;;;;;;4407609;32;20097;-74
2022/05/16 13:54:21;;;;;;;2.10;1.40;;;;;;;;;;4393933;32;20084;-74
2022/05/16 13:56:51;;;;;;;3.72;1.08;;;;;;;;;;4406078;32;20085;-73
2022/05/16 13:59:28;;;;;;;1.85;1.27;;;;;;;;;;4406120;32;20066;-72
2022/05/16 14:02:03;;;;;;;2.42;1.40;;;;;;;;;;4405859;32;20065;-71
2022/05/16 14:04:33;;;;;;;3.08;1.25;;;;;;;;;;4406178;32;20530;-71
2022/05/16 14:07:10;;;;;;;2.97;1.30;;;;;;;;;;4393556;32;20096;-72
2022/05/16 14:09:50;;;;;;;1.90;1.12;;;;;;;;;;4406329;32;20157;-72
2022/05/16 14:12:31;;;;;;;1.35;1.25;;;;;;;;;;4405551;32;20603;-73
2022/05/16 14:14:59;;;;;;;1.30;1.12;;;;;;;;;;4406658;32;20061;-73
2022/05/16 14:17:38;;;;;;;1.45;1.30;;;;;;;;;;4405881;32;20160;-71
2022/05/16 14:20:13;;;;;;;2.50;1.12;;;;;;;;;;4380951;32;20062;-71
2022/05/16 14:22:43;;;;;;;1.53;1.17;;;;;;;;;;4406118;32;20077;-71
2022/05/16 14:25:12;;;;;;;3.95;1.50;;;;;;;;;;4406664;32;20077;-71
2022/05/16 14:27:45;;;;;;;1.30;1.20;;;;;;;;;;4406457;32;20084;-72
2022/05/16 14:30:21;;;;;;;1.37;1.10;;;;;;;;;;4409758;32;20081;-71
2022/05/16 14:32:50;;;;;;;1.65;1.33;;;;;;;;;;4394296;32;20085;-70
2022/05/16 14:35:24;;;;;;;1.45;1.12;;;;;;;;;;4393435;32;20444;-72
2022/05/16 14:37:56;;;;;;;3.75;1.40;;;;;;;;;;4394394;32;20092;-71
2022/05/16 14:40:36;;;;;;;3.03;1.30;;;;;;;;;;4393061;32;20424;-71
2022/05/16 14:43:33;;;;;;;3.87;1.65;;;;;;;;;;4393491;32;20097;-70
2022/05/16 14:48:53;;;;;;;1.67;1.00;;;;;;;;;;4406745;32;20125;-72
2022/05/16 14:51:25;;;;;;;1.85;1.30;;;;;;;;;;4406872;32;20093;-72
2022/05/16 14:53:52;;;;;;;3.67;1.50;;;;;;;;;;4405670;32;20085;-72
2022/05/16 14:56:19;;;;;;;3.20;1.50;;;;;;;;;;4406473;32;20089;-72
2022/05/16 14:58:46;;;;;;;3.62;1.23;;;;;;;;;;4380291;32;20084;-72
2022/05/16 15:04:04;;;;;;;2.65;1.62;;;;;;;;;;4394993;32;20165;-72
2022/05/16 15:06:36;;;;;;;1.27;1.17;;;;;;;;;;4380970;32;20158;-71
2022/05/16 15:09:06;;;;;;;1.87;1.45;;;;;;;;;;4380182;32;20532;-71
2022/05/16 15:11:39;;;;;;;4.35;1.80;;;;;;;;;;4405040;32;20238;-71
2022/05/16 15:14:06;;;;;;;2.25;1.45;;;;;;;;;;4380491;32;20081;-71
2022/05/16 15:16:33;;;;;;;2.67;1.40;;;;;;;;;;4405172;32;20073;-70
2022/05/16 15:19:00;;;;;;;2.65;1.40;;;;;;;;;;4392181;32;20451;-71
2022/05/16 15:21:27;;;;;;;2.00;1.37;;;;;;;;;;4380058;32;20073;-71
2022/05/16 15:23:54;;;;;;;2.85;1.35;;;;;;;;;;4392975;32;20093;-71
2022/05/16 15:26:21;;;;;;;1.25;1.08;;;;;;;;;;4404860;32;20088;-71
2022/05/16 15:28:47;;;;;;;1.45;1.35;;;;;;;;;;4392531;32;20153;-72
2022/05/16 15:31:14;;;;;;;2.60;1.15;;;;;;;;;;4405156;32;20099;-71
2022/05/16 15:33:41;;;;;;;1.83;1.15;;;;;;;;;;4406925;32;20135;-72
2022/05/16 15:36:08;;;;;;;1.30;1.10;;;;;;;;;;4392521;32;20603;-72
2022/05/16 15:38:34;;;;;;;1.98;1.33;;;;;;;;;;4405698;32;20074;-71
2022/05/16 15:41:01;;;;;;;2.08;1.20;;;;;;;;;;4406771;32;20148;-71
2022/05/16 15:43:28;;;;;;;2.10;1.30;;;;;;;;;;4392406;32;20143;-71
2022/05/16 15:45:57;;;;;;;2.10;1.33;;;;;;;;;;4380510;32;20088;-70
2022/05/16 15:48:24;;;;;;;2.50;1.42;;;;;;;;;;4404820;32;20512;-71
2022/05/16 15:50:52;;;;;;;4.28;1.35;;;;;;;;;;4406572;32;20097;-71
2022/05/16 15:53:19;;;;;;;4.05;1.65;;;;;;;;;;4394524;32;20081;-71
2022/05/16 15:55:45;;;;;;;4.25;1.50;;;;;;;;;;4395160;32;20185;-71
2022/05/16 15:58:13;;;;;;;1.62;1.48;;;;;;;;;;4408075;32;20575;-71
2022/05/16 16:00:42;;;;;;;6.28;1.50;;;;;;;;;;4395492;32;20074;-71
2022/05/16 16:08:57;;;;;;;2.83;1.45;;;;;;;;;;4409591;32;20069;-72
2022/05/16 16:11:24;;;;;;;4.03;2.05;;;;;;;;;;4395040;32;20104;-71
2022/05/16 16:13:51;;;;;;;5.82;1.80;;;;;;;;;;4382604;32;20527;-71
2022/05/16 16:16:21;;;;;;;1.70;1.42;;;;;;;;;;4407549;32;20089;-72
2022/05/16 16:18:49;;;;;;;1.67;1.50;;;;;;;;;;4383245;32;20524;-70